createdAt,value
2022-10-01T00:01:46.512Z,78.00
2022-10-01T00:06:03.731Z,78.62
2022-10-01T00:10:16.100Z,78.79
2022-10-01T00:14:27.967Z,79.26
2022-10-01T00:18:42.203Z,79.66
2022-10-01T00:22:53.829Z,80.35
2022-10-01T00:27:05.363Z,80.58
2022-10-01T00:31:16.913Z,81.19
2022-10-01T00:35:28.644Z,81.33
2022-10-01T00:39:40.111Z,81.20
2022-10-01T00:44:18.248Z,82.32
2022-10-01T00:48:34.785Z,82.74
2022-10-01T00:52:52.270Z,82.86
2022-10-01T00:57:07.179Z,83.64
2022-10-01T01:01:19.044Z,83.60
2022-10-01T01:05:30.890Z,83.93
2022-10-01T01:09:46.249Z,84.40
2022-10-01T01:14:16.389Z,84.42
2022-10-01T01:18:53.008Z,84.28
2022-10-01T01:23:25.327Z,84.69
2022-10-01T01:27:42.073Z,84.92
2022-10-01T01:31:58.784Z,85.17
2022-10-01T01:36:16.414Z,85.76
2022-10-01T01:40:31.564Z,86.50
2022-10-01T01:44:46.101Z,86.66
2022-10-01T01:49:00.650Z,86.96
2022-10-01T01:53:12.229Z,87.41
2022-10-01T01:57:23.821Z,87.60
2022-10-01T02:01:42.611Z,87.71
2022-10-01T02:06:22.240Z,87.88
2022-10-01T02:10:36.963Z,88.44
2022-10-01T02:14:59.501Z,88.52
2022-10-01T02:19:41.213Z,88.38
2022-10-01T02:23:59.431Z,88.63
2022-10-01T02:28:16.380Z,88.94
2022-10-01T02:32:31.232Z,89.05
2022-10-01T02:36:45.270Z,89.24
2022-10-01T02:41:00.965Z,89.46
2022-10-01T02:45:15.460Z,89.33
2022-10-01T02:49:30.815Z,89.46
2022-10-01T02:53:49.007Z,89.76
2022-10-01T02:58:00.499Z,90.21
2022-10-01T03:02:12.300Z,90.62
2022-10-01T03:06:23.911Z,90.84
2022-10-01T03:10:35.458Z,90.84
2022-10-01T03:14:47.589Z,91.04
2022-10-01T03:18:59.165Z,91.19
2022-10-01T03:23:10.685Z,91.31
2022-10-01T03:27:22.440Z,91.62
2022-10-01T03:31:34.274Z,92.17
2022-10-01T03:35:46.049Z,92.34
2022-10-01T03:39:57.549Z,92.39
2022-10-01T03:44:09.021Z,92.38
2022-10-01T03:48:21.126Z,92.86
2022-10-01T03:52:32.610Z,92.67
2022-10-01T03:56:44.115Z,92.93
2022-10-01T04:00:55.930Z,92.78
2022-10-01T04:05:08.264Z,92.82
2022-10-01T04:09:20.919Z,93.18
2022-10-01T04:13:33.181Z,93.03
2022-10-01T04:17:46.057Z,92.82
2022-10-01T04:21:57.744Z,93.02
2022-10-01T04:26:09.577Z,92.92
2022-10-01T04:30:21.649Z,92.80
2022-10-01T04:34:51.777Z,93.05
2022-10-01T04:39:03.327Z,93.22
2022-10-01T04:43:14.883Z,93.44
2022-10-01T04:47:26.399Z,93.36
2022-10-01T04:51:37.898Z,93.21
2022-10-01T04:55:49.438Z,93.23
2022-10-01T05:00:01.996Z,93.14
2022-10-01T05:04:13.526Z,93.28
2022-10-01T05:08:25.016Z,93.35
2022-10-01T05:12:36.533Z,93.44
2022-10-01T05:16:48.075Z,93.45
2022-10-01T05:20:59.626Z,93.54
2022-10-01T05:25:11.236Z,93.59
2022-10-01T05:29:23.043Z,93.55
2022-10-01T05:33:34.686Z,93.34
2022-10-01T05:37:46.197Z,93.34
2022-10-01T05:41:59.137Z,93.18
2022-10-01T05:46:12.191Z,93.38
2022-10-01T05:50:25.364Z,93.03
2022-10-01T05:54:37.428Z,93.48
2022-10-01T05:58:48.957Z,93.47
2022-10-01T06:03:02.575Z,93.87
2022-10-01T06:07:14.179Z,93.76
2022-10-01T06:11:26.834Z,93.75
2022-10-01T06:15:38.944Z,93.61
2022-10-01T06:19:51.486Z,93.83
2022-10-01T06:24:03.044Z,93.73
2022-10-01T06:28:14.822Z,93.69
2022-10-01T06:32:26.481Z,93.95
2022-10-01T06:36:37.997Z,93.83
2022-10-01T06:40:57.960Z,94.14
2022-10-01T06:45:09.905Z,94.28
2022-10-01T06:49:22.202Z,93.81
2022-10-01T06:53:34.042Z,93.54
2022-10-01T06:57:46.322Z,93.59
2022-10-01T07:01:57.926Z,93.73
2022-10-01T07:06:11.216Z,93.79
2022-10-01T07:10:23.277Z,94.07
2022-10-01T07:14:35.253Z,93.76
2022-10-01T07:18:46.785Z,93.95
2022-10-01T07:22:59.636Z,93.74
2022-10-01T07:27:11.160Z,93.92
2022-10-01T07:31:24.250Z,93.76
2022-10-01T07:35:38.160Z,93.65
2022-10-01T07:39:49.803Z,93.57
2022-10-01T07:44:03.379Z,93.52
2022-10-01T07:48:15.096Z,93.58
2022-10-01T07:52:26.637Z,93.65
2022-10-01T07:56:38.576Z,93.61
2022-10-01T08:00:52.072Z,93.52
2022-10-01T08:05:18.738Z,93.48
2022-10-01T08:09:30.419Z,93.10
2022-10-01T08:13:42.793Z,93.16
2022-10-01T08:17:54.364Z,92.91
2022-10-01T08:22:07.127Z,92.86
2022-10-01T08:26:18.657Z,92.69
2022-10-01T08:30:30.916Z,93.01
2022-10-01T08:34:42.644Z,92.93
2022-10-01T08:38:54.265Z,92.49
2022-10-01T08:43:07.448Z,92.33
2022-10-01T08:47:31.196Z,92.53
2022-10-01T08:51:58.387Z,92.58
2022-10-01T08:56:21.721Z,90.82
2022-10-01T09:00:36.624Z,88.95
2022-10-01T09:04:51.131Z,86.92
2022-10-01T09:09:23.947Z,87.10
2022-10-01T09:13:57.503Z,87.21
2022-10-01T09:18:37.459Z,87.95
2022-10-01T09:23:28.883Z,88.63
2022-10-01T09:27:40.712Z,88.36
2022-10-01T09:31:53.630Z,88.52
2022-10-01T09:36:16.073Z,89.16
2022-10-01T09:40:35.607Z,89.38
2022-10-01T09:44:47.589Z,89.92
2022-10-01T09:49:28.041Z,91.33
2022-10-01T09:53:46.764Z,92.14
2022-10-01T09:58:09.496Z,89.41
2022-10-01T10:02:31.428Z,88.32
2022-10-01T10:06:43.103Z,87.24
2022-10-01T10:11:01.629Z,88.18
2022-10-01T10:15:17.632Z,84.71
2022-10-01T10:19:30.993Z,81.22
2022-10-01T10:23:50.869Z,79.31
2022-10-01T10:28:02.751Z,75.87
2022-10-01T10:32:41.487Z,70.35
2022-10-01T10:37:07.418Z,73.24
2022-10-01T10:41:26.058Z,72.31
2022-10-01T10:45:39.770Z,72.33
2022-10-01T10:49:53.746Z,72.93
2022-10-01T10:54:18.224Z,73.56
2022-10-01T10:58:33.333Z,73.95
2022-10-01T11:03:06.494Z,74.01
2022-10-01T11:07:23.704Z,74.79
2022-10-01T11:11:55.129Z,75.72
2022-10-01T11:16:18.687Z,76.50
2022-10-01T11:20:41.262Z,78.26
2022-10-01T11:25:23.722Z,79.56
2022-10-01T11:30:03.299Z,78.70
2022-10-01T11:34:25.228Z,73.11
2022-10-01T11:38:56.174Z,70.17
2022-10-01T11:43:32.377Z,68.59
2022-10-01T11:47:54.692Z,67.32
2022-10-01T11:52:26.239Z,67.62
2022-10-01T11:57:04.008Z,68.24
2022-10-01T12:01:25.096Z,69.02
2022-10-01T12:05:38.806Z,68.50
2022-10-01T12:10:17.716Z,69.31
2022-10-01T12:14:40.409Z,67.80
2022-10-01T12:19:07.249Z,65.35
2022-10-01T12:23:34.666Z,64.47
2022-10-01T12:28:28.294Z,64.21
2022-10-01T12:32:53.400Z,64.71
2022-10-01T12:37:26.960Z,66.52
2022-10-01T12:41:57.171Z,67.56
2022-10-01T12:46:27.577Z,69.76
2022-10-01T12:50:39.299Z,71.52
2022-10-01T12:55:13.705Z,72.56
2022-10-01T12:59:41.741Z,72.63
2022-10-01T13:04:03.644Z,72.68
2022-10-01T13:08:18.288Z,71.48
2022-10-01T13:12:59.495Z,72.33
2022-10-01T13:17:24.255Z,72.49
2022-10-01T13:22:11.119Z,72.78
2022-10-01T13:26:36.708Z,72.01
2022-10-01T13:30:59.098Z,70.81
2022-10-01T13:35:39.159Z,70.99
2022-10-01T13:39:50.707Z,69.19
2022-10-01T13:44:08.150Z,70.01
2022-10-01T13:48:21.187Z,67.26
2022-10-01T13:52:34.011Z,67.05
2022-10-01T13:56:45.484Z,67.40
2022-10-01T14:01:00.338Z,67.26
2022-10-01T14:05:17.728Z,67.41
2022-10-01T14:09:33.871Z,68.04
2022-10-01T14:14:09.425Z,66.53
2022-10-01T14:18:23.321Z,64.27
2022-10-01T14:22:59.465Z,63.32
2022-10-01T14:27:29.794Z,62.56
2022-10-01T14:31:50.909Z,61.96
2022-10-01T14:36:15.415Z,62.40
2022-10-01T14:40:36.634Z,62.63
2022-10-01T14:44:48.281Z,62.00
2022-10-01T14:49:00.639Z,61.57
2022-10-01T14:53:18.276Z,60.62
2022-10-01T14:57:33.569Z,60.45
2022-10-01T15:01:54.497Z,59.57
2022-10-01T15:06:18.053Z,60.12
2022-10-01T15:10:29.581Z,60.54
2022-10-01T15:14:42.811Z,60.48
2022-10-01T15:19:00.627Z,61.20
2022-10-01T15:23:12.135Z,62.09
2022-10-01T15:27:24.758Z,62.44
2022-10-01T15:31:36.948Z,63.35
2022-10-01T15:35:48.550Z,63.24
2022-10-01T15:40:01.295Z,63.67
2022-10-01T15:44:42.632Z,64.23
2022-10-01T15:49:17.259Z,64.65
2022-10-01T15:53:29.840Z,65.02
2022-10-01T15:57:42.070Z,65.15
2022-10-01T16:01:53.651Z,65.18
2022-10-01T16:06:08.382Z,65.12
2022-10-01T16:10:40.769Z,65.55
2022-10-01T16:15:03.956Z,66.05
2022-10-01T16:19:31.182Z,66.22
2022-10-01T16:24:27.666Z,66.85
2022-10-01T16:28:39.199Z,66.96
2022-10-01T16:32:50.719Z,67.57
2022-10-01T16:37:02.326Z,68.70
2022-10-01T16:41:24.652Z,68.85
2022-10-01T16:45:42.613Z,68.95
2022-10-01T16:49:54.238Z,69.04
2022-10-01T16:54:07.631Z,69.43
2022-10-01T16:58:20.221Z,69.92
2022-10-01T17:02:31.772Z,69.68
2022-10-01T17:06:43.352Z,69.77
2022-10-01T17:10:59.793Z,69.83
2022-10-01T17:15:17.649Z,69.89
2022-10-01T17:19:29.286Z,70.24
2022-10-01T17:23:40.812Z,70.33
2022-10-01T17:27:52.481Z,70.66
2022-10-01T17:32:04.099Z,70.95
2022-10-01T17:36:15.706Z,71.25
2022-10-01T17:40:27.198Z,71.75
2022-10-01T17:44:38.673Z,71.64
2022-10-01T17:48:50.831Z,71.88
2022-10-01T17:53:02.355Z,72.26
2022-10-01T17:57:13.909Z,72.28
2022-10-01T18:01:25.431Z,72.67
2022-10-01T18:05:37.013Z,73.21
2022-10-01T18:09:48.473Z,73.30
2022-10-01T18:13:59.995Z,73.51
2022-10-01T18:19:51.461Z,73.61
2022-10-01T18:22:42.983Z,73.56
2022-10-01T18:26:54.865Z,73.70
2022-10-01T18:31:18.724Z,74.41
2022-10-01T18:35:33.103Z,74.59
2022-10-01T18:39:49.734Z,74.86
2022-10-01T18:44:01.589Z,75.48
2022-10-01T18:48:31.838Z,75.41
2022-10-01T18:52:50.353Z,75.76
2022-10-01T18:57:33.029Z,76.15
2022-10-01T19:02:02.666Z,78.16
2022-10-01T19:06:26.425Z,78.38
2022-10-01T19:10:54.996Z,78.28
2022-10-01T19:15:16.972Z,78.49
2022-10-01T19:20:06.066Z,78.41
2022-10-01T19:24:35.801Z,78.83
2022-10-01T19:29:12.018Z,78.54
2022-10-01T19:33:24.481Z,78.66
2022-10-01T19:37:39.246Z,78.74
2022-10-01T19:42:06.083Z,78.95
2022-10-01T19:46:26.604Z,78.83
2022-10-01T19:50:43.345Z,78.88
2022-10-01T19:55:00.652Z,78.90
2022-10-01T19:59:14.604Z,79.15
2022-10-01T20:03:48.417Z,79.50
2022-10-01T20:08:06.179Z,79.53
2022-10-01T20:12:28.141Z,79.81
2022-10-01T20:16:47.063Z,80.22
2022-10-01T20:21:37.598Z,80.31
2022-10-01T20:26:10.384Z,80.14
2022-10-01T20:30:23.753Z,79.97
2022-10-01T20:34:35.123Z,80.00
2022-10-01T20:39:03.449Z,79.94
2022-10-01T20:43:21.103Z,80.20
2022-10-01T20:47:49.155Z,80.07
2022-10-01T20:52:13.017Z,80.38
2022-10-01T20:56:33.481Z,80.40
2022-10-01T21:00:47.571Z,80.34
2022-10-01T21:05:07.477Z,80.54
2022-10-01T21:09:31.006Z,80.90
2022-10-01T21:14:26.024Z,81.02
2022-10-01T21:18:57.261Z,81.29
2022-10-01T21:23:11.579Z,81.38
2022-10-01T21:27:54.795Z,81.49
2022-10-01T21:32:36.474Z,81.38
2022-10-01T21:36:58.540Z,81.74
2022-10-01T21:41:27.918Z,81.74
2022-10-01T21:45:59.674Z,81.66
2022-10-01T21:50:20.613Z,81.56
2022-10-01T21:55:05.635Z,81.65
2022-10-01T21:59:49.463Z,81.81
2022-10-01T22:04:12.665Z,82.20
2022-10-01T22:08:46.301Z,82.56
2022-10-01T22:13:02.246Z,82.45
2022-10-01T22:17:22.683Z,82.72
2022-10-01T22:21:39.429Z,82.48
2022-10-01T22:25:57.360Z,82.56
2022-10-01T22:30:17.108Z,82.66
2022-10-01T22:34:37.611Z,83.05
2022-10-01T22:38:55.549Z,83.26
2022-10-01T22:43:11.058Z,83.83
2022-10-01T22:47:43.132Z,84.22
2022-10-01T22:52:28.669Z,84.33
2022-10-01T22:56:59.182Z,85.16
2022-10-01T23:01:41.082Z,85.36
2022-10-01T23:06:04.925Z,85.11
2022-10-01T23:10:24.100Z,85.66
2022-10-01T23:15:05.980Z,86.35
2022-10-01T23:19:28.294Z,86.31
2022-10-01T23:23:42.994Z,86.82
2022-10-01T23:28:10.632Z,87.63
2022-10-01T23:32:34.234Z,88.46
2022-10-01T23:37:02.819Z,89.09
2022-10-01T23:41:18.092Z,88.92
2022-10-01T23:45:44.979Z,88.98
2022-10-01T23:50:00.404Z,89.58
2022-10-01T23:54:27.080Z,89.11
2022-10-01T23:58:55.400Z,89.02
